09:37
Airports
History
Links
Donate
Help keep this website running!
PayPal
Bitcoin
This page is community maintained. The information is intended for PC simulator navigation or reference.
Always use approved charts for navigation.
CYEE
HURONIA
HURONIA (CYEE)
Midland, Ontario, Canada
(U)
Lat/Lng:44° 40' 59.5" N / 79° 55' 41.51" W
44.683195 / -79.928196
Elevation:770'ft / 235mMSL
ID / ICAO:CYEE
Runways:1
Longest:16-34
Asphalt 1,223m / 4,013ft
Nearby Weather09:00 GMT 2017-10-23
Nearby weather at CYQA, Muskoka located 36.6 nautical miles from CYEE
Altimeter: 30.03
Visibility: 9.0 statute miles
Wind: 5 knots (from 130°)
Temp: 13°c / 55°f
Humidity: 87.6%

METAR: CYQA 230900Z AUTO 13005KT 9SM CLR 13/11 A3003 RMK SLP172

(Powered by phpweather)
Airport Radio Frequencies
CTAF/UNICOM: 122.85
Nearby VORs <50NM
Nearby NDBs
Runway 16 / 34
Dimensions:1223.1 x 22.9m 4013' x 75'ft
Surface:Asphalt
Edge Lights:Medium intensity
Runway 16 [A]Runway 34 [B]
Heading:146°TH 326°TH
Lat:
Lng:
44° 41' 16"N
79° 55' 57.01"W
44° 40' 43"N
79° 55' 26"W
TDZ:Yes, lighted
User Notes and Comments
44° 40' 59.5" N / 79° 55' 41.51" W
Distance To
Airport ID:
Nearby Airports
(U) Collingwood 19.8 NM
CNY3 SW 214°
(U) SPRINGWATER BARRIE AIRPARK 21.3 NM
CNA3 SSE 152°
(U) LAKE SIMCOE RGNL 22.9 NM
CNB9 SE 126°
(U) Orillia Mara 29.7 NM
NE2 E 99°
(U) Muskoka 36.6 NM
CYQA ( WX ) NE 56°
4 Windermere 38.3 NM
CNW2 NNE 30°
(U) PARRY SOUND AREA MUNI 39.9 NM
CNK4 N
VFR Chart
Flight Planning at SkyVector.com